createdAt,value
2022-10-17T00:00:09.801Z,98713.00
2022-10-17T00:00:20.972Z,98713.00
2022-10-17T00:00:31.024Z,98711.00
2022-10-17T00:00:39.531Z,98713.00
2022-10-17T00:00:49.541Z,98711.00
2022-10-17T00:01:00.983Z,98709.00
2022-10-17T00:01:09.584Z,98711.00
2022-10-17T00:01:21.055Z,98715.00
2022-10-17T00:01:31.055Z,98713.00
2022-10-17T00:01:40.566Z,98713.00
2022-10-17T00:01:49.759Z,98713.00
2022-10-17T00:01:59.531Z,98711.00
2022-10-17T00:02:10.973Z,98709.00
2022-10-17T00:02:20.983Z,98709.00
2022-10-17T00:02:29.525Z,98711.00
2022-10-17T00:02:40.972Z,98713.00
2022-10-17T00:02:50.974Z,98711.00
2022-10-17T00:02:59.535Z,98711.00
2022-10-17T00:03:10.327Z,98711.00
2022-10-17T00:03:21.003Z,98713.00
2022-10-17T00:03:29.513Z,98711.00
2022-10-17T00:03:40.983Z,98713.00
2022-10-17T00:03:50.462Z,98711.00
2022-10-17T00:03:59.515Z,98713.00
2022-10-17T00:04:10.971Z,98711.00
2022-10-17T00:04:21.012Z,98711.00
2022-10-17T00:04:30.999Z,98711.00
2022-10-17T00:04:40.974Z,98713.00
2022-10-17T00:04:49.503Z,98711.00
2022-10-17T00:05:00.963Z,98715.00
2022-10-17T00:05:09.525Z,98713.00
2022-10-17T00:05:19.533Z,98715.00
2022-10-17T00:05:30.954Z,98715.00
2022-10-17T00:05:40.960Z,98713.00
2022-10-17T00:05:49.506Z,98713.00
2022-10-17T00:06:00.313Z,98713.00
2022-10-17T00:06:10.944Z,98711.00
2022-10-17T00:06:19.493Z,98713.00
2022-10-17T00:06:30.957Z,98711.00
2022-10-17T00:06:40.960Z,98713.00
2022-10-17T00:06:49.493Z,98711.00
2022-10-17T00:06:59.494Z,98713.00
2022-10-17T00:07:10.955Z,98713.00
2022-10-17T00:07:19.483Z,98711.00
2022-10-17T00:07:31.111Z,98711.00
2022-10-17T00:07:39.482Z,98713.00
2022-10-17T00:07:49.512Z,98711.00
2022-10-17T00:08:00.954Z,98713.00
2022-10-17T00:08:09.505Z,98713.00
2022-10-17T00:08:19.524Z,98715.00
2022-10-17T00:08:30.935Z,98715.00
2022-10-17T00:08:39.522Z,98719.00
2022-10-17T00:08:50.932Z,98717.00
2022-10-17T00:08:59.476Z,98715.00
2022-10-17T00:09:09.482Z,98719.00
2022-10-17T00:09:20.924Z,98715.00
2022-10-17T00:09:29.684Z,98713.00
2022-10-17T00:09:40.986Z,98715.00
2022-10-17T00:09:50.454Z,98715.00
2022-10-17T00:10:00.933Z,98713.00
2022-10-17T00:10:10.913Z,98713.00
2022-10-17T00:10:20.918Z,98715.00
2022-10-17T00:10:29.464Z,98713.00
2022-10-17T00:10:40.915Z,98713.00
2022-10-17T00:10:50.015Z,98713.00
2022-10-17T00:11:00.916Z,98715.00
2022-10-17T00:11:09.584Z,98717.00
2022-10-17T00:11:20.322Z,98715.00
2022-10-17T00:11:29.535Z,98715.00
2022-10-17T00:11:40.084Z,98717.00
2022-10-17T00:11:50.122Z,98717.00
2022-10-17T00:12:00.895Z,98715.00
2022-10-17T00:12:10.896Z,98717.00
2022-10-17T00:12:20.124Z,98715.00
2022-10-17T00:12:30.160Z,98715.00
2022-10-17T00:12:39.500Z,98713.00
2022-10-17T00:12:49.506Z,98715.00
2022-10-17T00:13:00.895Z,98713.00
2022-10-17T00:13:09.644Z,98713.00
2022-10-17T00:13:20.979Z,98715.00
2022-10-17T00:13:30.258Z,98715.00
2022-10-17T00:13:40.206Z,98717.00
2022-10-17T00:13:50.143Z,98717.00
2022-10-17T00:14:00.168Z,98719.00
2022-10-17T00:14:09.417Z,98715.00
2022-10-17T00:14:20.895Z,98717.00
2022-10-17T00:14:30.177Z,98717.00
2022-10-17T00:14:39.426Z,98713.00
2022-10-17T00:14:50.886Z,98715.00
2022-10-17T00:14:59.446Z,98715.00
2022-10-17T00:15:10.206Z,98715.00
2022-10-17T00:15:19.426Z,98713.00
2022-10-17T00:15:30.926Z,98713.00
2022-10-17T00:15:39.446Z,98715.00
2022-10-17T00:15:50.877Z,98717.00
2022-10-17T00:16:00.285Z,98715.00
2022-10-17T00:16:10.866Z,98713.00
2022-10-17T00:16:19.456Z,98715.00
2022-10-17T00:16:29.415Z,98717.00
2022-10-17T00:16:39.427Z,98717.00
2022-10-17T00:16:49.428Z,98713.00
2022-10-17T00:17:00.866Z,98715.00
2022-10-17T00:17:10.868Z,98719.00
2022-10-17T00:17:20.857Z,98717.00
2022-10-17T00:17:29.978Z,98717.00
2022-10-17T00:17:39.401Z,98717.00
2022-10-17T00:17:50.970Z,98719.00
2022-10-17T00:17:59.417Z,98715.00
2022-10-17T00:18:10.897Z,98717.00
2022-10-17T00:18:19.417Z,98719.00
2022-10-17T00:18:29.407Z,98719.00
2022-10-17T00:18:39.408Z,98719.00
2022-10-17T00:18:49.428Z,98721.00
2022-10-17T00:18:59.417Z,98717.00
2022-10-17T00:19:09.414Z,98717.00
2022-10-17T00:19:20.857Z,98717.00
2022-10-17T00:19:29.427Z,98717.00
2022-10-17T00:19:40.899Z,98717.00
2022-10-17T00:19:49.407Z,98715.00
2022-10-17T00:20:00.252Z,98715.00
2022-10-17T00:20:10.860Z,98715.00
2022-10-17T00:20:19.397Z,98719.00
2022-10-17T00:20:29.420Z,98721.00
2022-10-17T00:20:39.417Z,98723.00
2022-10-17T00:20:49.408Z,98723.00
2022-10-17T00:20:59.402Z,98723.00
2022-10-17T00:21:09.408Z,98723.00
2022-10-17T00:21:20.838Z,98723.00
2022-10-17T00:21:30.831Z,98723.00
2022-10-17T00:21:39.380Z,98721.00
2022-10-17T00:21:50.351Z,98723.00
2022-10-17T00:22:00.860Z,98721.00
2022-10-17T00:22:09.388Z,98721.00
2022-10-17T00:22:19.399Z,98719.00
2022-10-17T00:22:29.410Z,98719.00
2022-10-17T00:22:39.411Z,98719.00
2022-10-17T00:22:49.406Z,98721.00
2022-10-17T00:22:59.392Z,98721.00
2022-10-17T00:23:10.851Z,98723.00
2022-10-17T00:23:19.587Z,98721.00
2022-10-17T00:23:29.364Z,98721.00
2022-10-17T00:23:39.648Z,98723.00
2022-10-17T00:23:50.318Z,98721.00
2022-10-17T00:24:00.833Z,98723.00
2022-10-17T00:24:09.377Z,98723.00
2022-10-17T00:24:19.381Z,98723.00
2022-10-17T00:24:29.410Z,98721.00
2022-10-17T00:24:40.819Z,98723.00
2022-10-17T00:24:49.359Z,98719.00
2022-10-17T00:25:00.809Z,98721.00
2022-10-17T00:25:10.829Z,98723.00
2022-10-17T00:25:20.811Z,98723.00
2022-10-17T00:25:29.405Z,98723.00
2022-10-17T00:25:39.370Z,98723.00
2022-10-17T00:25:50.829Z,98721.00
2022-10-17T00:25:59.629Z,98725.00
2022-10-17T00:26:09.359Z,98725.00
2022-10-17T00:26:19.381Z,98721.00
2022-10-17T00:26:29.359Z,98725.00
2022-10-17T00:26:39.391Z,98723.00
2022-10-17T00:26:50.844Z,98723.00
2022-10-17T00:26:59.368Z,98721.00
2022-10-17T00:27:09.361Z,98729.00
2022-10-17T00:27:19.828Z,98721.00
2022-10-17T00:27:30.727Z,98721.00
2022-10-17T00:27:40.811Z,98721.00
2022-10-17T00:27:49.819Z,98723.00
2022-10-17T00:28:00.787Z,98723.00
2022-10-17T00:28:09.489Z,98727.00
2022-10-17T00:28:19.341Z,98729.00
2022-10-17T00:28:29.391Z,98729.00
2022-10-17T00:28:39.453Z,98727.00
2022-10-17T00:28:49.405Z,98727.00
2022-10-17T00:29:00.877Z,98737.00
2022-10-17T00:29:09.451Z,98737.00
2022-10-17T00:29:20.119Z,98729.00
2022-10-17T00:29:30.796Z,98737.00
2022-10-17T00:29:40.823Z,98737.00
2022-10-17T00:29:50.782Z,98739.00
2022-10-17T00:29:59.384Z,98729.00
2022-10-17T00:30:09.331Z,98729.00
2022-10-17T00:30:19.791Z,98727.00
2022-10-17T00:30:29.984Z,98727.00
2022-10-17T00:30:39.311Z,98727.00
2022-10-17T00:30:49.331Z,98725.00
2022-10-17T00:30:59.315Z,98729.00
2022-10-17T00:31:09.343Z,98725.00
2022-10-17T00:31:20.774Z,98725.00
2022-10-17T00:31:29.320Z,98729.00
2022-10-17T00:31:39.410Z,98723.00
2022-10-17T00:31:49.363Z,98737.00
2022-10-17T00:32:00.781Z,98739.00
2022-10-17T00:32:10.111Z,98741.00
2022-10-17T00:32:20.762Z,98739.00
2022-10-17T00:32:29.654Z,98739.00
2022-10-17T00:32:39.341Z,98729.00
2022-10-17T00:32:49.374Z,98737.00
2022-10-17T00:32:59.327Z,98729.00
2022-10-17T00:33:09.311Z,98729.00
2022-10-17T00:33:20.773Z,98727.00
2022-10-17T00:33:29.292Z,98737.00
2022-10-17T00:33:40.752Z,98739.00
2022-10-17T00:33:49.323Z,98739.00
2022-10-17T00:33:59.312Z,98739.00
2022-10-17T00:34:09.421Z,98737.00
2022-10-17T00:34:20.170Z,98739.00
2022-10-17T00:34:29.915Z,98739.00
2022-10-17T00:34:40.741Z,98739.00
2022-10-17T00:34:49.302Z,98739.00
2022-10-17T00:35:01.262Z,98739.00
2022-10-17T00:35:10.743Z,98741.00
2022-10-17T00:35:19.362Z,98739.00
2022-10-17T00:35:30.236Z,98739.00
2022-10-17T00:35:40.753Z,98729.00
2022-10-17T00:35:49.487Z,98737.00
2022-10-17T00:35:59.281Z,98729.00
2022-10-17T00:36:09.295Z,98737.00
2022-10-17T00:36:20.231Z,98741.00
2022-10-17T00:36:30.750Z,98741.00
2022-10-17T00:36:40.745Z,98737.00
2022-10-17T00:36:49.293Z,98729.00
2022-10-17T00:36:59.359Z,98729.00
2022-10-17T00:37:10.746Z,98729.00
2022-10-17T00:37:20.232Z,98739.00
2022-10-17T00:37:29.283Z,98739.00
2022-10-17T00:37:39.276Z,98739.00
2022-10-17T00:37:49.343Z,98739.00
2022-10-17T00:38:00.721Z,98741.00
2022-10-17T00:38:10.757Z,98739.00
2022-10-17T00:38:19.285Z,98739.00
2022-10-17T00:38:30.723Z,98737.00
2022-10-17T00:38:40.722Z,98729.00
2022-10-17T00:38:50.704Z,98739.00
2022-10-17T00:38:59.434Z,98737.00
2022-10-17T00:39:10.703Z,98739.00
2022-10-17T00:39:19.397Z,98739.00
2022-10-17T00:39:29.254Z,98737.00
2022-10-17T00:39:40.715Z,98737.00
2022-10-17T00:39:50.723Z,98739.00
2022-10-17T00:39:59.494Z,98737.00
2022-10-17T00:40:09.465Z,98737.00
2022-10-17T00:40:19.250Z,98737.00
2022-10-17T00:40:29.436Z,98737.00
2022-10-17T00:40:40.733Z,98727.00
2022-10-17T00:40:49.631Z,98727.00
2022-10-17T00:40:59.459Z,98737.00
2022-10-17T00:41:09.477Z,98727.00
2022-10-17T00:41:19.504Z,98729.00
2022-10-17T00:41:29.504Z,98729.00
2022-10-17T00:41:39.234Z,98737.00
2022-10-17T00:41:49.545Z,98729.00
2022-10-17T00:41:59.241Z,98737.00
2022-10-17T00:42:09.475Z,98729.00
2022-10-17T00:42:20.716Z,98729.00
2022-10-17T00:42:30.518Z,98737.00
2022-10-17T00:42:39.585Z,98729.00
2022-10-17T00:42:49.235Z,98737.00
2022-10-17T00:42:59.384Z,98737.00
2022-10-17T00:43:09.597Z,98729.00
2022-10-17T00:43:20.675Z,98737.00
2022-10-17T00:43:30.693Z,98739.00
2022-10-17T00:43:39.236Z,98729.00
2022-10-17T00:43:49.256Z,98737.00
2022-10-17T00:43:59.266Z,98737.00
2022-10-17T00:44:09.595Z,98737.00
2022-10-17T00:44:20.665Z,98739.00
2022-10-17T00:44:30.682Z,98737.00
2022-10-17T00:44:39.225Z,98737.00
2022-10-17T00:44:49.255Z,98739.00
2022-10-17T00:45:00.675Z,98729.00
2022-10-17T00:45:09.246Z,98729.00
2022-10-17T00:45:20.687Z,98729.00
2022-10-17T00:45:30.699Z,98727.00
2022-10-17T00:45:39.225Z,98729.00
2022-10-17T00:45:50.730Z,98737.00
2022-10-17T00:45:59.216Z,98727.00
2022-10-17T00:46:10.685Z,98737.00
2022-10-17T00:46:20.670Z,98727.00
2022-10-17T00:46:30.655Z,98727.00
2022-10-17T00:46:40.674Z,98729.00
2022-10-17T00:46:50.657Z,98727.00
2022-10-17T00:47:00.657Z,98727.00
2022-10-17T00:47:09.244Z,98729.00
2022-10-17T00:47:20.657Z,98729.00
2022-10-17T00:47:29.216Z,98727.00
2022-10-17T00:47:39.234Z,98727.00
2022-10-17T00:47:50.165Z,98727.00
2022-10-17T00:47:59.206Z,98725.00
2022-10-17T00:48:10.682Z,98725.00
2022-10-17T00:48:22.622Z,98727.00
2022-10-17T00:48:30.168Z,98729.00
2022-10-17T00:48:40.646Z,98727.00
2022-10-17T00:48:50.044Z,98725.00
2022-10-17T00:48:59.218Z,98725.00
2022-10-17T00:49:10.668Z,98729.00
2022-10-17T00:49:20.647Z,98723.00
2022-10-17T00:49:30.158Z,98725.00
2022-10-17T00:49:40.647Z,98727.00
2022-10-17T00:49:49.214Z,98725.00
2022-10-17T00:50:10.674Z,98727.00
2022-10-17T00:50:19.428Z,98725.00
2022-10-17T00:50:29.177Z,98727.00
2022-10-17T00:50:39.193Z,98727.00
2022-10-17T00:50:49.191Z,98727.00
2022-10-17T00:51:00.641Z,98727.00
2022-10-17T00:51:10.630Z,98727.00
2022-10-17T00:51:19.187Z,98729.00
2022-10-17T00:51:29.180Z,98727.00
2022-10-17T00:51:40.627Z,98725.00
2022-10-17T00:51:49.272Z,98725.00
2022-10-17T00:51:59.157Z,98727.00
2022-10-17T00:52:09.190Z,98725.00
2022-10-17T00:52:21.384Z,98727.00
2022-10-17T00:52:31.033Z,98725.00
2022-10-17T00:52:40.694Z,98725.00
2022-10-17T00:52:50.709Z,98727.00
2022-10-17T00:53:00.673Z,98737.00
2022-10-17T00:53:10.227Z,98727.00
2022-10-17T00:53:20.700Z,98725.00
2022-10-17T00:53:30.709Z,98725.00
2022-10-17T00:53:40.681Z,98725.00
2022-10-17T00:53:50.688Z,98725.00
2022-10-17T00:53:59.259Z,98725.00
2022-10-17T00:54:09.299Z,98727.00
2022-10-17T00:54:20.688Z,98725.00
2022-10-17T00:54:30.682Z,98727.00
2022-10-17T00:54:40.678Z,98721.00
2022-10-17T00:54:50.679Z,98727.00
2022-10-17T00:55:00.672Z,98725.00
2022-10-17T00:55:09.248Z,98723.00
2022-10-17T00:55:19.438Z,98725.00
2022-10-17T00:55:30.676Z,98725.00
2022-10-17T00:55:40.689Z,98723.00
2022-10-17T00:55:49.245Z,98721.00
2022-10-17T00:56:00.127Z,98725.00
2022-10-17T00:56:09.233Z,98721.00
2022-10-17T00:56:19.230Z,98721.00
2022-10-17T00:56:30.179Z,98723.00
2022-10-17T00:56:39.209Z,98725.00
2022-10-17T00:56:50.660Z,98725.00
2022-10-17T00:57:00.649Z,98725.00
2022-10-17T00:57:09.209Z,98723.00
2022-10-17T00:57:20.659Z,98723.00
2022-10-17T00:57:29.979Z,98723.00
2022-10-17T00:57:40.704Z,98719.00
2022-10-17T00:57:49.219Z,98725.00
2022-10-17T00:57:59.214Z,98725.00
2022-10-17T00:58:09.249Z,98723.00
2022-10-17T00:58:20.642Z,98723.00
2022-10-17T00:58:30.656Z,98723.00
2022-10-17T00:58:39.202Z,98727.00
2022-10-17T00:58:49.309Z,98727.00
2022-10-17T00:58:59.261Z,98727.00
2022-10-17T00:59:09.235Z,98723.00
2022-10-17T00:59:19.689Z,98729.00
2022-10-17T00:59:29.179Z,98725.00
2022-10-17T00:59:39.211Z,98721.00
2022-10-17T00:59:50.009Z,98723.00
2022-10-17T00:59:59.190Z,98725.00
2022-10-17T01:00:10.647Z,98723.00
2022-10-17T01:00:19.189Z,98727.00
2022-10-17T01:00:30.667Z,98727.00
2022-10-17T01:00:40.640Z,98725.00
2022-10-17T01:00:49.710Z,98725.00
2022-10-17T01:00:59.199Z,98725.00
2022-10-17T01:01:10.721Z,98729.00
2022-10-17T01:01:19.243Z,98727.00
2022-10-17T01:01:29.205Z,98729.00
2022-10-17T01:01:40.698Z,98727.00
2022-10-17T01:01:50.631Z,98729.00
2022-10-17T01:02:00.050Z,98729.00
2022-10-17T01:02:10.634Z,98727.00
2022-10-17T01:02:20.630Z,98737.00
2022-10-17T01:02:31.003Z,98729.00
2022-10-17T01:02:39.990Z,98729.00
2022-10-17T01:02:49.171Z,98737.00
2022-10-17T01:02:59.190Z,98727.00
2022-10-17T01:03:09.222Z,98729.00
2022-10-17T01:03:19.181Z,98729.00
2022-10-17T01:03:30.611Z,98729.00
2022-10-17T01:03:39.171Z,98737.00
2022-10-17T01:03:49.179Z,98729.00
2022-10-17T01:04:00.123Z,98737.00
2022-10-17T01:04:09.633Z,98729.00
2022-10-17T01:04:20.591Z,98737.00
2022-10-17T01:04:30.604Z,98737.00
2022-10-17T01:04:39.142Z,98737.00
2022-10-17T01:04:50.617Z,98737.00
2022-10-17T01:05:00.625Z,98739.00
2022-10-17T01:05:10.608Z,98737.00
2022-10-17T01:05:19.991Z,98729.00
2022-10-17T01:05:30.609Z,98737.00
2022-10-17T01:05:39.151Z,98729.00
2022-10-17T01:05:49.230Z,98727.00
2022-10-17T01:05:59.133Z,98729.00
2022-10-17T01:06:10.630Z,98737.00
2022-10-17T01:06:19.173Z,98737.00
2022-10-17T01:06:29.121Z,98729.00
2022-10-17T01:06:40.699Z,98739.00
2022-10-17T01:06:49.132Z,98737.00
2022-10-17T01:06:59.162Z,98739.00
2022-10-17T01:07:09.746Z,98741.00
2022-10-17T01:07:19.141Z,98739.00
2022-10-17T01:07:33.165Z,98739.00
2022-10-17T01:07:40.253Z,98743.00
2022-10-17T01:07:50.244Z,98741.00
2022-10-17T01:07:59.324Z,98741.00
2022-10-17T01:08:09.311Z,98741.00
2022-10-17T01:08:19.867Z,98741.00
2022-10-17T01:08:30.753Z,98743.00
2022-10-17T01:08:40.816Z,98741.00
2022-10-17T01:08:49.552Z,98741.00
2022-10-17T01:09:00.753Z,98745.00
2022-10-17T01:09:09.871Z,98741.00
2022-10-17T01:09:19.283Z,98741.00
2022-10-17T01:09:30.763Z,98741.00
2022-10-17T01:09:39.354Z,98741.00
2022-10-17T01:09:50.073Z,98743.00
2022-10-17T01:10:00.743Z,98745.00
2022-10-17T01:10:09.896Z,98743.00
2022-10-17T01:10:19.509Z,98745.00
2022-10-17T01:10:30.734Z,98741.00
2022-10-17T01:10:39.874Z,98743.00
2022-10-17T01:10:50.713Z,98741.00
2022-10-17T01:10:59.434Z,98739.00
2022-10-17T01:11:09.876Z,98741.00
2022-10-17T01:11:19.917Z,98743.00
2022-10-17T01:11:29.953Z,98741.00
2022-10-17T01:11:39.983Z,98741.00
2022-10-17T01:11:49.301Z,98741.00
2022-10-17T01:11:59.955Z,98741.00
2022-10-17T01:12:10.023Z,98739.00
2022-10-17T01:12:20.033Z,98741.00
2022-10-17T01:12:29.529Z,98739.00
2022-10-17T01:12:40.285Z,98743.00
2022-10-17T01:12:51.093Z,98743.00
2022-10-17T01:13:00.707Z,98739.00
2022-10-17T01:13:09.311Z,98737.00
2022-10-17T01:13:19.514Z,98743.00
2022-10-17T01:13:30.707Z,98741.00
2022-10-17T01:13:39.254Z,98743.00
2022-10-17T01:13:50.704Z,98743.00
2022-10-17T01:13:59.277Z,98741.00
2022-10-17T01:14:10.123Z,98743.00
2022-10-17T01:14:19.325Z,98743.00
2022-10-17T01:14:30.137Z,98745.00
2022-10-17T01:14:40.714Z,98743.00
2022-10-17T01:14:49.385Z,98743.00
2022-10-17T01:15:00.695Z,98745.00
2022-10-17T01:15:09.306Z,98741.00
2022-10-17T01:15:20.695Z,98745.00
2022-10-17T01:15:29.257Z,98745.00
2022-10-17T01:15:40.025Z,98745.00
2022-10-17T01:15:50.694Z,98741.00
2022-10-17T01:16:00.700Z,98741.00
2022-10-17T01:16:09.224Z,98741.00
2022-10-17T01:16:19.314Z,98739.00
2022-10-17T01:16:30.694Z,98743.00
2022-10-17T01:16:39.239Z,98741.00
2022-10-17T01:16:50.686Z,98739.00
2022-10-17T01:17:00.686Z,98741.00
2022-10-17T01:17:10.194Z,98741.00
2022-10-17T01:17:20.704Z,98739.00
2022-10-17T01:17:30.703Z,98737.00
2022-10-17T01:17:39.241Z,98737.00
2022-10-17T01:17:50.686Z,98737.00
2022-10-17T01:18:00.676Z,98737.00
2022-10-17T01:18:09.252Z,98737.00
2022-10-17T01:18:20.703Z,98727.00
2022-10-17T01:18:30.683Z,98727.00
2022-10-17T01:18:40.678Z,98729.00
2022-10-17T01:18:50.676Z,98739.00
2022-10-17T01:18:59.225Z,98737.00
2022-10-17T01:19:09.316Z,98729.00
2022-10-17T01:19:20.710Z,98729.00
2022-10-17T01:19:30.688Z,98737.00
2022-10-17T01:19:40.667Z,98729.00
2022-10-17T01:19:50.666Z,98725.00
2022-10-17T01:20:00.669Z,98727.00
2022-10-17T01:20:10.656Z,98741.00
2022-10-17T01:20:19.426Z,98739.00
2022-10-17T01:20:30.722Z,98737.00
2022-10-17T01:20:40.669Z,98739.00
2022-10-17T01:20:50.161Z,98737.00
2022-10-17T01:21:00.695Z,98739.00
2022-10-17T01:21:10.657Z,98737.00
2022-10-17T01:21:20.157Z,98737.00
2022-10-17T01:21:29.224Z,98737.00
2022-10-17T01:21:39.216Z,98729.00
2022-10-17T01:21:50.658Z,98729.00
2022-10-17T01:21:59.246Z,98737.00
2022-10-17T01:22:10.167Z,98739.00
2022-10-17T01:22:20.676Z,98737.00
2022-10-17T01:22:30.893Z,98739.00
2022-10-17T01:22:40.637Z,98737.00
2022-10-17T01:22:49.181Z,98739.00
2022-10-17T01:23:00.657Z,98737.00
2022-10-17T01:23:10.657Z,98729.00
2022-10-17T01:23:20.637Z,98737.00
2022-10-17T01:23:29.187Z,98739.00
2022-10-17T01:23:40.639Z,98741.00
2022-10-17T01:23:50.626Z,98741.00
2022-10-17T01:23:59.187Z,98739.00
2022-10-17T01:24:09.197Z,98737.00
2022-10-17T01:24:19.197Z,98743.00
2022-10-17T01:24:30.638Z,98737.00
2022-10-17T01:24:39.179Z,98737.00
2022-10-17T01:24:50.167Z,98739.00
2022-10-17T01:25:00.628Z,98743.00
2022-10-17T01:25:47.976Z,98743.00
2022-10-17T01:25:56.545Z,98745.00
2022-10-17T01:26:07.476Z,98743.00
2022-10-17T01:26:16.538Z,98749.00
2022-10-17T01:26:28.023Z,98745.00
2022-10-17T01:26:38.007Z,98747.00
2022-10-17T01:26:46.556Z,98747.00
2022-10-17T01:26:58.001Z,98749.00
2022-10-17T01:27:06.526Z,98749.00
2022-10-17T01:27:17.988Z,98747.00
2022-10-17T01:27:27.989Z,98749.00
2022-10-17T01:27:36.606Z,98751.00
2022-10-17T01:27:46.802Z,98751.00
2022-10-17T01:27:56.696Z,98749.00
2022-10-17T01:28:07.986Z,98753.00
2022-10-17T01:28:17.978Z,98751.00
2022-10-17T01:28:26.937Z,98749.00
2022-10-17T01:28:36.942Z,98751.00
2022-10-17T01:28:46.766Z,98751.00
2022-10-17T01:28:56.518Z,98751.00
2022-10-17T01:29:06.835Z,98749.00
2022-10-17T01:29:17.427Z,98751.00
2022-10-17T01:29:26.509Z,98751.00
2022-10-17T01:29:36.538Z,98751.00
2022-10-17T01:29:46.758Z,98753.00
2022-10-17T01:29:56.518Z,98753.00
2022-10-17T01:30:06.545Z,98753.00
2022-10-17T01:30:18.025Z,98751.00
2022-10-17T01:30:26.499Z,98751.00
2022-10-17T01:30:36.537Z,98749.00
2022-10-17T01:30:46.497Z,98753.00
2022-10-17T01:30:56.520Z,98753.00
2022-10-17T01:31:06.537Z,98751.00
2022-10-17T01:31:16.495Z,98755.00
2022-10-17T01:31:26.519Z,98753.00
2022-10-17T01:31:36.527Z,98755.00
2022-10-17T01:31:46.507Z,98751.00
2022-10-17T01:31:56.521Z,98753.00
2022-10-17T01:32:06.508Z,98755.00
2022-10-17T01:32:16.507Z,98753.00
2022-10-17T01:32:28.329Z,98755.00
2022-10-17T01:32:36.488Z,98755.00
2022-10-17T01:32:46.529Z,98757.00
2022-10-17T01:32:57.948Z,98755.00
2022-10-17T01:33:07.953Z,98755.00
2022-10-17T01:33:17.935Z,98755.00
2022-10-17T01:33:26.487Z,98753.00
2022-10-17T01:33:36.519Z,98757.00
2022-10-17T01:33:47.959Z,98755.00
2022-10-17T01:33:57.937Z,98753.00
2022-10-17T01:34:07.938Z,98755.00
2022-10-17T01:34:17.919Z,98755.00
2022-10-17T01:34:27.929Z,98757.00
2022-10-17T01:34:36.498Z,98755.00
2022-10-17T01:34:46.480Z,98753.00
2022-10-17T01:34:56.497Z,98755.00
2022-10-17T01:35:06.480Z,98755.00
2022-10-17T01:35:17.938Z,98755.00
2022-10-17T01:35:27.938Z,98757.00
2022-10-17T01:35:38.103Z,98757.00
2022-10-17T01:35:47.899Z,98755.00
2022-10-17T01:36:01.824Z,98757.00
2022-10-17T01:36:08.488Z,98757.00
2022-10-17T01:36:18.960Z,98753.00
2022-10-17T01:36:27.521Z,98753.00
2022-10-17T01:36:38.980Z,98753.00
2022-10-17T01:36:48.059Z,98751.00
2022-10-17T01:36:57.519Z,98751.00
2022-10-17T01:37:07.613Z,98753.00
2022-10-17T01:37:17.497Z,98753.00
2022-10-17T01:37:27.507Z,98751.00
2022-10-17T01:37:39.014Z,98751.00
2022-10-17T01:37:47.542Z,98753.00
2022-10-17T01:37:58.980Z,98751.00
2022-10-17T01:38:08.450Z,98751.00
2022-10-17T01:38:17.490Z,98753.00
2022-10-17T01:38:27.502Z,98751.00
2022-10-17T01:38:39.003Z,98751.00
2022-10-17T01:38:47.480Z,98751.00
2022-10-17T01:38:58.939Z,98749.00
2022-10-17T01:39:07.552Z,98749.00
2022-10-17T01:39:17.489Z,98745.00
2022-10-17T01:39:29.983Z,98747.00
2022-10-17T01:39:39.100Z,98747.00
2022-10-17T01:39:48.931Z,98751.00
2022-10-17T01:39:57.489Z,98747.00
2022-10-17T01:40:07.550Z,98745.00
2022-10-17T01:40:17.470Z,98747.00
2022-10-17T01:40:27.483Z,98745.00
2022-10-17T01:40:37.495Z,98747.00
2022-10-17T01:40:47.478Z,98745.00
2022-10-17T01:40:58.951Z,98745.00
2022-10-17T01:41:08.941Z,98743.00
2022-10-17T01:41:17.482Z,98747.00
2022-10-17T01:41:28.951Z,98747.00
2022-10-17T01:41:38.921Z,98743.00
2022-10-17T01:41:47.471Z,98747.00
2022-10-17T01:41:58.933Z,98747.00
2022-10-17T01:42:08.920Z,98747.00
2022-10-17T01:42:18.921Z,98747.00
2022-10-17T01:42:29.251Z,98747.00
2022-10-17T01:42:37.471Z,98747.00
2022-10-17T01:42:48.573Z,98747.00
2022-10-17T01:42:57.491Z,98747.00
2022-10-17T01:43:07.460Z,98749.00
2022-10-17T01:43:18.901Z,98747.00
2022-10-17T01:43:27.452Z,98749.00
2022-10-17T01:43:38.923Z,98747.00
2022-10-17T01:43:47.471Z,98745.00
2022-10-17T01:43:57.511Z,98749.00
2022-10-17T01:44:08.892Z,98747.00
2022-10-17T01:44:17.451Z,98749.00
2022-10-17T01:44:27.452Z,98747.00
2022-10-17T01:44:37.550Z,98747.00
2022-10-17T01:44:47.471Z,98745.00
2022-10-17T01:44:57.512Z,98747.00
2022-10-17T01:45:07.551Z,98747.00
2022-10-17T01:45:17.572Z,98749.00
2022-10-17T01:45:27.516Z,98749.00
2022-10-17T01:45:37.551Z,98747.00
2022-10-17T01:45:47.433Z,98747.00
2022-10-17T01:45:57.492Z,98749.00
2022-10-17T01:46:07.578Z,98747.00
2022-10-17T01:46:17.426Z,98747.00
2022-10-17T01:46:27.443Z,98747.00
2022-10-17T01:46:37.455Z,98747.00
2022-10-17T01:46:47.657Z,98747.00
2022-10-17T01:47:07.454Z,98745.00
2022-10-17T01:47:18.899Z,98745.00
2022-10-17T01:47:29.396Z,98747.00
2022-10-17T01:47:38.873Z,98747.00
2022-10-17T01:47:47.454Z,98749.00
2022-10-17T01:47:57.714Z,98751.00
2022-10-17T01:48:07.433Z,98747.00
2022-10-17T01:48:17.432Z,98745.00
2022-10-17T01:48:27.443Z,98749.00
2022-10-17T01:48:38.880Z,98747.00
2022-10-17T01:48:48.868Z,98747.00
2022-10-17T01:48:57.434Z,98747.00
2022-10-17T01:49:08.401Z,98747.00
2022-10-17T01:49:17.469Z,98747.00
2022-10-17T01:49:28.883Z,98745.00
2022-10-17T01:49:38.862Z,98749.00
2022-10-17T01:49:48.413Z,98743.00
2022-10-17T01:49:58.867Z,98749.00
2022-10-17T01:50:07.430Z,98743.00
2022-10-17T01:50:18.873Z,98747.00
2022-10-17T01:50:27.484Z,98745.00
2022-10-17T01:50:38.848Z,98743.00
2022-10-17T01:50:48.863Z,98743.00
2022-10-17T01:50:57.412Z,98745.00
2022-10-17T01:51:07.419Z,98743.00
2022-10-17T01:51:17.629Z,98743.00
2022-10-17T01:51:28.895Z,98743.00
2022-10-17T01:51:38.843Z,98743.00
2022-10-17T01:51:47.404Z,98745.00
2022-10-17T01:51:57.413Z,98743.00
2022-10-17T01:52:08.873Z,98747.00
2022-10-17T01:52:18.852Z,98743.00
2022-10-17T01:52:27.385Z,98743.00
2022-10-17T01:52:38.846Z,98745.00
2022-10-17T01:52:47.444Z,98747.00
2022-10-17T01:52:57.413Z,98743.00
2022-10-17T01:53:07.402Z,98745.00
2022-10-17T01:53:18.824Z,98747.00
2022-10-17T01:53:27.384Z,98747.00
2022-10-17T01:53:37.383Z,98747.00
2022-10-17T01:53:48.835Z,98745.00
2022-10-17T01:53:58.043Z,98743.00
2022-10-17T01:54:07.975Z,98747.00
2022-10-17T01:54:17.363Z,98745.00
2022-10-17T01:54:28.834Z,98743.00
2022-10-17T01:54:37.372Z,98747.00
2022-10-17T01:54:48.313Z,98745.00
2022-10-17T01:54:57.385Z,98739.00
2022-10-17T01:55:08.835Z,98745.00
2022-10-17T01:55:18.807Z,98741.00
2022-10-17T01:55:28.836Z,98741.00
2022-10-17T01:55:38.816Z,98743.00
2022-10-17T01:55:47.435Z,98741.00
2022-10-17T01:56:08.834Z,98739.00
2022-10-17T01:56:18.806Z,98743.00
2022-10-17T01:56:28.905Z,98743.00
2022-10-17T01:56:37.926Z,98743.00
2022-10-17T01:56:48.799Z,98741.00
2022-10-17T01:56:58.085Z,98743.00
2022-10-17T01:57:08.808Z,98745.00
2022-10-17T01:57:17.966Z,98741.00
2022-10-17T01:57:28.272Z,98745.00
2022-10-17T01:57:38.805Z,98743.00
2022-10-17T01:57:47.978Z,98745.00
2022-10-17T01:57:58.006Z,98739.00
2022-10-17T01:58:08.049Z,98741.00
2022-10-17T01:58:18.792Z,98741.00
2022-10-17T01:58:28.788Z,98739.00
2022-10-17T01:58:37.354Z,98741.00